createdAt,value
2018-10-19T00:00:48.576Z,13.10
2018-10-19T00:03:17.168Z,13.00
2018-10-19T00:05:45.894Z,13.00
2018-10-19T00:08:14.373Z,13.00
2018-10-19T00:10:43.098Z,13.00
2018-10-19T00:13:11.690Z,13.10
2018-10-19T00:15:40.330Z,13.20
2018-10-19T00:18:09.199Z,13.10
2018-10-19T00:20:37.751Z,13.10
2018-10-19T00:23:06.469Z,13.10
2018-10-19T00:25:34.888Z,13.10
2018-10-19T00:28:04.107Z,13.10
2018-10-19T00:30:32.696Z,13.00
2018-10-19T00:33:01.806Z,13.00
2018-10-19T00:35:30.423Z,12.90
2018-10-19T00:37:59.005Z,12.90
2018-10-19T00:40:27.474Z,12.90
2018-10-19T00:42:56.035Z,12.90
2018-10-19T00:45:56.317Z,12.80
2018-10-19T00:48:24.830Z,12.80
2018-10-19T00:50:53.498Z,13.00
2018-10-19T00:53:21.965Z,12.90
2018-10-19T00:55:50.454Z,12.90
2018-10-19T00:58:19.039Z,12.90
2018-10-19T01:00:47.767Z,12.90
2018-10-19T01:03:16.414Z,12.80
2018-10-19T01:05:44.918Z,12.80
2018-10-19T01:08:13.537Z,12.80
2018-10-19T01:10:42.215Z,12.80
2018-10-19T01:13:11.010Z,12.80
2018-10-19T01:15:39.607Z,12.80
2018-10-19T01:18:08.182Z,12.80
2018-10-19T01:20:36.680Z,12.80
2018-10-19T01:23:05.545Z,12.70
2018-10-19T01:25:34.070Z,12.70
2018-10-19T01:28:02.653Z,12.70
2018-10-19T01:30:31.267Z,12.80
2018-10-19T01:32:59.764Z,12.90
2018-10-19T01:35:28.359Z,12.80
2018-10-19T01:37:57.145Z,12.80
2018-10-19T01:40:25.934Z,12.80
2018-10-19T01:42:54.491Z,12.80
2018-10-19T01:45:23.096Z,12.80
2018-10-19T01:47:51.583Z,13.00
2018-10-19T01:50:20.424Z,12.90
2018-10-19T01:52:48.945Z,12.80
2018-10-19T01:55:17.529Z,12.70
2018-10-19T01:57:46.112Z,12.60
2018-10-19T02:00:14.596Z,12.50
2018-10-19T02:02:43.154Z,12.50
2018-10-19T02:05:11.665Z,12.50
2018-10-19T02:07:40.136Z,12.40
2018-10-19T02:10:08.602Z,12.30
2018-10-19T02:12:37.236Z,12.30
2018-10-19T02:15:06.989Z,12.30
2018-10-19T02:17:35.490Z,12.20
2018-10-19T02:20:03.999Z,12.20
2018-10-19T02:22:32.552Z,12.20
2018-10-19T02:25:01.180Z,12.20
2018-10-19T02:27:29.756Z,12.20
2018-10-19T02:29:58.358Z,12.20
2018-10-19T02:32:26.986Z,12.20
2018-10-19T02:34:55.493Z,12.10
2018-10-19T02:37:24.190Z,12.10
2018-10-19T02:39:52.698Z,12.10
2018-10-19T02:42:21.318Z,12.10
2018-10-19T02:44:49.747Z,12.10
2018-10-19T02:47:18.231Z,12.10
2018-10-19T02:49:46.793Z,12.00
2018-10-19T02:52:15.324Z,12.00
2018-10-19T02:54:44.024Z,12.00
2018-10-19T02:57:12.651Z,12.10
2018-10-19T02:59:41.207Z,12.30
2018-10-19T03:02:09.683Z,12.40
2018-10-19T03:04:38.302Z,12.40
2018-10-19T03:07:07.318Z,12.40
2018-10-19T03:09:36.140Z,12.40
2018-10-19T03:12:04.983Z,12.30
2018-10-19T03:14:33.697Z,12.40
2018-10-19T03:17:02.178Z,12.30
2018-10-19T03:19:30.811Z,12.20
2018-10-19T03:21:59.374Z,12.10
2018-10-19T03:24:27.940Z,12.00
2018-10-19T03:26:56.583Z,12.10
2018-10-19T03:29:25.411Z,12.00
2018-10-19T03:31:54.130Z,12.00
2018-10-19T03:34:22.713Z,12.00
2018-10-19T03:36:51.222Z,12.10
2018-10-19T03:39:20.134Z,12.20
2018-10-19T03:41:48.531Z,12.20
2018-10-19T03:44:17.010Z,12.30
2018-10-19T03:46:45.696Z,12.20
2018-10-19T03:49:14.285Z,12.10
2018-10-19T03:51:42.687Z,11.90
2018-10-19T03:54:11.288Z,11.80
2018-10-19T03:56:39.923Z,11.80
2018-10-19T03:59:08.684Z,11.90
2018-10-19T04:01:37.176Z,11.90
2018-10-19T04:04:05.820Z,11.90
2018-10-19T04:06:34.326Z,11.90
2018-10-19T04:09:02.924Z,11.90
2018-10-19T04:11:31.564Z,11.90
2018-10-19T04:14:00.028Z,12.00
2018-10-19T04:16:28.839Z,11.90
2018-10-19T04:18:57.324Z,11.80
2018-10-19T04:21:26.058Z,11.80
2018-10-19T04:23:54.591Z,11.70
2018-10-19T04:26:23.122Z,11.60
2018-10-19T04:28:51.678Z,11.70
2018-10-19T04:31:20.207Z,11.70
2018-10-19T04:33:48.706Z,11.70
2018-10-19T04:36:17.178Z,11.60
2018-10-19T04:38:45.835Z,11.60
2018-10-19T04:41:14.617Z,11.50
2018-10-19T04:43:43.039Z,11.50
2018-10-19T04:46:11.639Z,11.50
2018-10-19T04:48:40.346Z,11.50
2018-10-19T04:51:08.957Z,11.70
2018-10-19T04:53:37.538Z,11.60
2018-10-19T04:56:06.532Z,11.60
2018-10-19T04:58:35.105Z,11.50
2018-10-19T05:01:03.679Z,11.60
2018-10-19T05:03:32.331Z,11.60
2018-10-19T05:06:00.886Z,11.60
2018-10-19T05:08:29.540Z,11.50
2018-10-19T05:10:58.167Z,11.40
2018-10-19T05:13:26.704Z,11.60
2018-10-19T05:15:55.287Z,12.70
2018-10-19T05:18:23.835Z,11.70
2018-10-19T05:20:52.502Z,11.70
2018-10-19T05:23:21.035Z,11.80
2018-10-19T05:25:49.622Z,11.70
2018-10-19T05:28:18.202Z,11.70
2018-10-19T05:30:46.834Z,11.70
2018-10-19T05:33:15.347Z,11.60
2018-10-19T05:35:43.987Z,11.70
2018-10-19T05:38:12.591Z,11.50
2018-10-19T05:40:41.216Z,11.40
2018-10-19T05:43:09.731Z,11.40
2018-10-19T05:45:38.291Z,11.40
2018-10-19T05:48:07.044Z,11.40
2018-10-19T05:50:35.588Z,11.60
2018-10-19T05:53:04.277Z,11.60
2018-10-19T05:55:32.772Z,11.70
2018-10-19T05:58:01.519Z,11.60
2018-10-19T06:00:30.182Z,11.60
2018-10-19T06:02:58.699Z,11.50
2018-10-19T06:05:27.433Z,11.40
2018-10-19T06:07:55.995Z,11.30
2018-10-19T06:10:24.548Z,11.50
2018-10-19T06:12:53.055Z,11.40
2018-10-19T06:15:21.648Z,11.50
2018-10-19T06:17:50.366Z,11.50
2018-10-19T06:20:18.915Z,11.50
2018-10-19T06:22:47.532Z,11.40
2018-10-19T06:25:16.124Z,11.50
2018-10-19T06:27:44.765Z,11.50
2018-10-19T06:30:13.372Z,11.40
2018-10-19T06:32:41.884Z,11.50
2018-10-19T06:35:11.559Z,11.40
2018-10-19T06:37:40.082Z,11.50
2018-10-19T06:40:08.632Z,11.50
2018-10-19T06:42:37.319Z,11.50
2018-10-19T06:45:06.465Z,11.50
2018-10-19T06:47:35.200Z,11.60
2018-10-19T06:50:04.190Z,11.60
2018-10-19T06:52:32.747Z,11.60
2018-10-19T06:55:01.264Z,11.70
2018-10-19T06:57:29.907Z,11.80
2018-10-19T06:59:58.425Z,11.80
2018-10-19T07:02:27.057Z,11.80
2018-10-19T07:04:55.556Z,11.70
2018-10-19T07:07:24.190Z,11.70
2018-10-19T07:09:52.752Z,11.70
2018-10-19T07:12:21.440Z,11.70
2018-10-19T07:14:50.327Z,11.70
2018-10-19T07:17:18.894Z,11.70
2018-10-19T07:19:47.409Z,11.70
2018-10-19T07:22:16.027Z,11.60
2018-10-19T07:24:44.603Z,11.60
2018-10-19T07:27:13.194Z,11.50
2018-10-19T07:29:41.809Z,11.60
2018-10-19T07:32:10.333Z,11.60
2018-10-19T07:34:39.155Z,11.60
2018-10-19T07:37:08.163Z,11.60
2018-10-19T07:39:36.818Z,11.60
2018-10-19T07:42:06.078Z,11.60
2018-10-19T07:44:34.755Z,11.60
2018-10-19T07:47:03.376Z,11.60
2018-10-19T07:49:31.835Z,11.60
2018-10-19T07:52:00.446Z,11.60
2018-10-19T07:54:28.997Z,11.70
2018-10-19T07:56:57.605Z,11.80
2018-10-19T07:59:26.254Z,11.80
2018-10-19T08:01:54.833Z,11.80
2018-10-19T08:04:23.368Z,11.80
2018-10-19T08:06:51.931Z,11.80
2018-10-19T08:09:20.443Z,11.90
2018-10-19T08:11:49.073Z,12.00
2018-10-19T08:14:17.882Z,12.00
2018-10-19T08:16:46.362Z,12.00
2018-10-19T08:19:14.863Z,12.00
2018-10-19T08:21:43.507Z,12.00
2018-10-19T08:24:12.074Z,12.00
2018-10-19T08:26:41.036Z,12.20
2018-10-19T08:29:09.542Z,12.10
2018-10-19T08:31:38.200Z,12.00
2018-10-19T08:34:06.868Z,11.90
2018-10-19T08:36:35.551Z,11.90
2018-10-19T08:39:05.191Z,12.00
2018-10-19T08:41:33.926Z,12.00
2018-10-19T08:44:02.351Z,12.10
2018-10-19T08:46:37.072Z,12.00
2018-10-19T08:49:07.723Z,12.00
2018-10-19T08:51:36.212Z,12.10
2018-10-19T08:54:04.952Z,12.10
2018-10-19T08:56:33.487Z,12.10
2018-10-19T08:59:02.205Z,12.10
2018-10-19T09:01:30.707Z,12.20
2018-10-19T09:03:59.369Z,12.20
2018-10-19T09:06:27.871Z,12.10
2018-10-19T09:08:56.549Z,12.20
2018-10-19T09:11:25.433Z,12.30
2018-10-19T09:13:54.063Z,12.40
2018-10-19T09:16:22.860Z,12.50
2018-10-19T09:18:51.462Z,12.60
2018-10-19T09:21:20.347Z,12.60
2018-10-19T09:23:49.371Z,12.50
2018-10-19T09:26:17.921Z,12.70
2018-10-19T09:28:46.541Z,12.60
2018-10-19T09:31:15.055Z,12.80
2018-10-19T09:33:43.667Z,12.80
2018-10-19T09:36:12.315Z,12.80
2018-10-19T09:38:40.830Z,12.90
2018-10-19T09:41:09.628Z,13.00
2018-10-19T09:43:38.132Z,13.10
2018-10-19T09:46:06.753Z,13.10
2018-10-19T09:48:35.253Z,13.20
2018-10-19T09:51:03.840Z,13.10
2018-10-19T09:53:32.439Z,13.30
2018-10-19T09:56:01.019Z,13.30
2018-10-19T09:58:29.687Z,13.50
2018-10-19T10:00:58.615Z,13.60
2018-10-19T10:03:27.980Z,13.70
2018-10-19T10:05:56.556Z,13.80
2018-10-19T10:08:25.600Z,13.70
2018-10-19T10:10:54.547Z,13.80
2018-10-19T10:13:23.176Z,13.90
2018-10-19T10:15:51.860Z,13.90
2018-10-19T10:18:20.393Z,13.90
2018-10-19T10:20:48.936Z,13.90
2018-10-19T10:23:17.460Z,14.00
2018-10-19T10:25:46.081Z,14.10
2018-10-19T10:28:14.742Z,14.10
2018-10-19T10:30:43.247Z,14.20
2018-10-19T10:33:12.198Z,14.20
2018-10-19T10:35:40.709Z,14.20
2018-10-19T10:38:09.322Z,14.30
2018-10-19T10:40:37.826Z,14.40
2018-10-19T10:43:06.487Z,14.50
2018-10-19T10:45:35.100Z,14.60
2018-10-19T10:48:03.749Z,14.70
2018-10-19T10:50:32.328Z,14.80
2018-10-19T10:53:00.899Z,14.90
2018-10-19T10:55:29.791Z,15.00
2018-10-19T10:57:58.389Z,15.10
2018-10-19T11:00:26.897Z,15.20
2018-10-19T11:02:55.629Z,15.20
2018-10-19T11:05:24.255Z,15.40
2018-10-19T11:07:53.023Z,15.50
2018-10-19T11:10:21.605Z,15.50
2018-10-19T11:12:50.523Z,15.50
2018-10-19T11:15:19.234Z,15.50
2018-10-19T11:17:47.968Z,15.60
2018-10-19T11:20:16.629Z,15.60
2018-10-19T11:22:45.375Z,15.70
2018-10-19T11:25:14.025Z,15.70
2018-10-19T11:27:42.554Z,15.70
2018-10-19T11:30:11.023Z,15.70
2018-10-19T11:32:39.712Z,15.80
2018-10-19T11:35:08.555Z,15.70
2018-10-19T11:37:37.227Z,15.80
2018-10-19T11:40:17.380Z,15.70
2018-10-19T11:42:46.057Z,15.80
2018-10-19T11:45:14.713Z,15.70
2018-10-19T11:47:43.251Z,15.70
2018-10-19T11:50:11.783Z,15.70
2018-10-19T11:52:40.367Z,15.80
2018-10-19T11:55:09.357Z,15.80
2018-10-19T11:57:38.407Z,15.80
2018-10-19T12:00:07.511Z,15.90
2018-10-19T12:02:36.124Z,15.90
2018-10-19T12:05:05.369Z,15.90
2018-10-19T12:07:33.883Z,15.90
2018-10-19T12:10:02.583Z,15.90
2018-10-19T12:12:31.418Z,15.90
2018-10-19T12:14:59.926Z,15.90
2018-10-19T12:17:28.600Z,15.90
2018-10-19T12:19:57.277Z,15.80
2018-10-19T12:22:25.836Z,15.80
2018-10-19T12:24:54.404Z,15.80
2018-10-19T12:27:22.955Z,15.80
2018-10-19T12:29:51.556Z,15.80
2018-10-19T12:32:20.073Z,15.80
2018-10-19T12:34:48.703Z,15.80
2018-10-19T12:37:17.379Z,15.80
2018-10-19T12:39:45.999Z,15.80
2018-10-19T12:42:14.484Z,15.80
2018-10-19T12:44:43.005Z,15.80
2018-10-19T12:47:23.027Z,15.80
2018-10-19T12:49:51.588Z,15.80
2018-10-19T12:52:20.100Z,15.90
2018-10-19T12:54:48.852Z,15.90
2018-10-19T12:57:17.421Z,16.00
2018-10-19T12:59:45.915Z,16.00
2018-10-19T13:02:14.971Z,16.00
2018-10-19T13:04:43.490Z,16.00
2018-10-19T13:07:12.187Z,16.00
2018-10-19T13:09:40.715Z,16.00
2018-10-19T13:12:09.284Z,16.00
2018-10-19T13:14:38.038Z,16.00
2018-10-19T13:17:07.025Z,16.00
2018-10-19T13:19:35.567Z,15.90
2018-10-19T13:22:04.337Z,16.00
2018-10-19T13:24:33.077Z,16.00
2018-10-19T13:27:02.141Z,16.00
2018-10-19T13:29:30.683Z,16.00
2018-10-19T13:31:59.333Z,16.10
2018-10-19T13:34:28.159Z,16.10
2018-10-19T13:36:57.068Z,16.10
2018-10-19T13:39:25.716Z,16.10
2018-10-19T13:41:54.353Z,16.20
2018-10-19T13:44:22.973Z,16.20
2018-10-19T13:46:51.850Z,16.20
2018-10-19T13:49:20.439Z,16.10
2018-10-19T13:51:49.031Z,16.10
2018-10-19T13:54:17.713Z,16.10
2018-10-19T13:56:46.388Z,16.10
2018-10-19T13:59:15.085Z,16.00
2018-10-19T14:01:43.868Z,16.10
2018-10-19T14:04:12.591Z,16.00
2018-10-19T14:06:41.243Z,16.00
2018-10-19T14:09:10.846Z,16.00
2018-10-19T14:11:40.015Z,16.00
2018-10-19T14:14:08.567Z,16.00
2018-10-19T14:16:37.278Z,16.00
2018-10-19T14:19:06.209Z,16.00
2018-10-19T14:21:34.759Z,16.00
2018-10-19T14:24:03.345Z,16.00
2018-10-19T14:26:31.978Z,16.00
2018-10-19T14:29:00.591Z,16.00
2018-10-19T14:31:29.137Z,16.00
2018-10-19T14:33:57.735Z,16.00
2018-10-19T14:36:26.375Z,16.10
2018-10-19T14:38:55.061Z,16.10
2018-10-19T14:41:23.542Z,16.00
2018-10-19T14:43:52.020Z,16.10
2018-10-19T14:46:20.567Z,16.00
2018-10-19T14:48:49.413Z,16.00
2018-10-19T14:51:17.899Z,16.00
2018-10-19T14:53:46.738Z,15.90
2018-10-19T14:56:15.352Z,16.00
2018-10-19T14:58:43.858Z,15.90
2018-10-19T15:01:12.405Z,15.90
2018-10-19T15:03:41.196Z,15.90
2018-10-19T15:06:09.756Z,15.90
2018-10-19T15:08:38.359Z,15.90
2018-10-19T15:11:07.004Z,15.80
2018-10-19T15:13:35.632Z,15.70
2018-10-19T15:16:04.622Z,15.70
2018-10-19T15:18:33.403Z,15.60
2018-10-19T15:21:02.107Z,15.60
2018-10-19T15:23:30.814Z,15.60
2018-10-19T15:25:59.381Z,15.50
2018-10-19T15:28:28.061Z,15.50
2018-10-19T15:30:56.683Z,15.60
2018-10-19T15:33:25.176Z,15.40
2018-10-19T15:35:53.838Z,15.40
2018-10-19T15:38:22.711Z,15.30
2018-10-19T15:40:51.283Z,15.30
2018-10-19T15:43:19.799Z,15.30
2018-10-19T15:45:48.463Z,15.20
2018-10-19T15:48:17.169Z,15.20
2018-10-19T15:50:45.631Z,15.20
2018-10-19T15:53:14.226Z,15.20
2018-10-19T15:55:42.827Z,15.20
2018-10-19T15:58:11.495Z,15.10
2018-10-19T16:00:40.147Z,15.10
2018-10-19T16:03:08.660Z,15.10
2018-10-19T16:05:37.254Z,15.10
2018-10-19T16:08:05.877Z,15.10
2018-10-19T16:10:34.460Z,15.10
2018-10-19T16:13:03.129Z,15.10
2018-10-19T16:15:31.627Z,15.00
2018-10-19T16:18:00.232Z,15.00
2018-10-19T16:20:29.100Z,15.00
2018-10-19T16:22:57.665Z,15.00
2018-10-19T16:25:26.309Z,15.00
2018-10-19T16:27:55.014Z,15.00
2018-10-19T16:30:23.632Z,14.90
2018-10-19T16:32:52.362Z,14.90
2018-10-19T16:35:21.013Z,14.90
2018-10-19T16:37:49.956Z,14.80
2018-10-19T16:40:18.724Z,14.80
2018-10-19T16:42:47.341Z,14.80
2018-10-19T16:45:16.325Z,14.80
2018-10-19T16:47:44.954Z,14.80
2018-10-19T16:50:13.637Z,14.70
2018-10-19T16:52:42.486Z,14.70
2018-10-19T16:55:10.996Z,14.70
2018-10-19T16:57:39.840Z,14.70
2018-10-19T17:00:09.748Z,14.70
2018-10-19T17:02:38.348Z,14.70
2018-10-19T17:05:07.383Z,14.70
2018-10-19T17:07:36.059Z,14.70
2018-10-19T17:10:05.449Z,14.70
2018-10-19T17:12:34.094Z,14.70
2018-10-19T17:15:02.605Z,14.60
2018-10-19T17:17:31.267Z,14.60
2018-10-19T17:19:59.846Z,14.60
2018-10-19T17:22:28.580Z,14.60
2018-10-19T17:24:57.261Z,14.60
2018-10-19T17:27:25.835Z,14.60
2018-10-19T17:29:54.482Z,14.60
2018-10-19T17:32:23.129Z,14.60
2018-10-19T17:34:51.756Z,14.60
2018-10-19T17:37:20.407Z,14.60
2018-10-19T17:39:49.076Z,14.50
2018-10-19T17:42:17.900Z,14.50
2018-10-19T17:44:46.417Z,14.40
2018-10-19T17:47:15.114Z,14.50
2018-10-19T17:49:43.661Z,14.50
2018-10-19T17:52:12.371Z,14.50
2018-10-19T17:54:40.975Z,14.40
2018-10-19T17:57:09.674Z,14.40
2018-10-19T17:59:38.246Z,14.30
2018-10-19T18:02:06.939Z,14.20
2018-10-19T18:04:35.794Z,14.20
2018-10-19T18:07:04.740Z,14.10
2018-10-19T18:09:33.518Z,14.10
2018-10-19T18:12:02.061Z,14.10
2018-10-19T18:14:30.855Z,14.10
2018-10-19T18:16:59.481Z,14.10
2018-10-19T18:19:28.132Z,14.10
2018-10-19T18:21:56.954Z,14.00
2018-10-19T18:24:25.424Z,14.00
2018-10-19T18:26:54.116Z,14.00
2018-10-19T18:29:22.771Z,13.90
2018-10-19T18:31:51.304Z,13.90
2018-10-19T18:34:20.095Z,13.90
2018-10-19T18:36:48.677Z,13.80
2018-10-19T18:39:17.510Z,13.80
2018-10-19T18:41:46.150Z,13.70
2018-10-19T18:44:14.811Z,13.60
2018-10-19T18:46:43.449Z,13.60
2018-10-19T18:49:12.047Z,13.50
2018-10-19T18:51:40.665Z,13.50
2018-10-19T18:54:09.215Z,13.50
2018-10-19T18:56:37.838Z,13.40
2018-10-19T18:59:06.426Z,13.40
2018-10-19T19:01:35.049Z,13.30
2018-10-19T19:04:03.746Z,13.20
2018-10-19T19:06:32.388Z,13.10
2018-10-19T19:09:01.070Z,13.10
2018-10-19T19:11:29.776Z,13.00
2018-10-19T19:13:58.693Z,12.80
2018-10-19T19:16:27.465Z,12.80
2018-10-19T19:18:56.493Z,12.80
2018-10-19T19:21:25.296Z,12.80
2018-10-19T19:23:59.277Z,12.80
2018-10-19T19:26:28.307Z,12.70
2018-10-19T19:28:57.383Z,12.70
2018-10-19T19:31:26.041Z,12.70
2018-10-19T19:34:00.125Z,12.70
2018-10-19T19:36:28.683Z,12.70
2018-10-19T19:38:57.237Z,12.70
2018-10-19T19:41:31.250Z,12.70
2018-10-19T19:44:00.035Z,12.80
2018-10-19T19:46:28.913Z,12.90
2018-10-19T19:49:02.765Z,12.90
2018-10-19T19:51:31.392Z,12.90
2018-10-19T19:54:00.138Z,12.90
2018-10-19T19:56:28.764Z,13.00
2018-10-19T19:58:57.472Z,13.00
2018-10-19T20:01:25.985Z,13.00
2018-10-19T20:03:54.683Z,12.90
2018-10-19T20:06:23.349Z,12.90
2018-10-19T20:08:52.053Z,12.90
2018-10-19T20:11:20.795Z,13.00
2018-10-19T20:13:49.696Z,13.00
2018-10-19T20:16:18.426Z,13.00
2018-10-19T20:18:47.115Z,13.00
2018-10-19T20:21:16.053Z,13.00
2018-10-19T20:23:44.771Z,13.10
2018-10-19T20:26:13.765Z,13.10
2018-10-19T20:28:42.370Z,13.20
2018-10-19T20:31:11.393Z,13.10
2018-10-19T20:33:39.914Z,13.00
2018-10-19T20:36:08.553Z,12.90
2018-10-19T20:38:37.126Z,12.80
2018-10-19T20:41:06.483Z,12.80
2018-10-19T20:43:35.264Z,12.70
2018-10-19T20:46:03.960Z,12.50
2018-10-19T20:48:32.700Z,12.50
2018-10-19T20:51:01.574Z,12.40
2018-10-19T20:53:30.407Z,12.40
2018-10-19T20:55:59.216Z,12.30
2018-10-19T20:58:27.764Z,12.20
2018-10-19T21:00:56.338Z,12.20
2018-10-19T21:03:24.980Z,12.00
2018-10-19T21:05:53.571Z,11.90
2018-10-19T21:08:22.169Z,11.90
2018-10-19T21:10:50.693Z,11.90
2018-10-19T21:13:19.686Z,11.80
2018-10-19T21:15:48.175Z,11.70
2018-10-19T21:18:16.739Z,11.70
2018-10-19T21:20:45.492Z,11.70
2018-10-19T21:23:14.074Z,11.60
2018-10-19T21:25:42.654Z,11.60
2018-10-19T21:28:11.173Z,11.70
2018-10-19T21:30:39.708Z,11.70
2018-10-19T21:33:08.285Z,11.50
2018-10-19T21:35:36.928Z,11.40
2018-10-19T21:38:05.762Z,11.40
2018-10-19T21:40:34.275Z,11.30
2018-10-19T21:43:02.861Z,11.20
2018-10-19T21:45:31.616Z,11.20
2018-10-19T21:48:00.263Z,11.20
2018-10-19T21:50:28.900Z,11.10
2018-10-19T21:52:57.610Z,11.20
2018-10-19T21:55:26.194Z,11.10
2018-10-19T21:57:54.688Z,11.00
2018-10-19T22:00:23.222Z,11.00
2018-10-19T22:02:51.734Z,11.10
2018-10-19T22:05:20.348Z,11.10
2018-10-19T22:07:49.226Z,11.00
2018-10-19T22:10:17.756Z,11.00
2018-10-19T22:12:46.249Z,11.00
2018-10-19T22:15:14.752Z,10.90
2018-10-19T22:17:43.402Z,10.80
2018-10-19T22:20:11.989Z,10.80
2018-10-19T22:22:40.641Z,10.70
2018-10-19T22:25:09.372Z,10.60
2018-10-19T22:27:37.908Z,10.70
2018-10-19T22:30:07.515Z,10.70
2018-10-19T22:32:36.476Z,10.60
2018-10-19T22:35:05.202Z,10.50
2018-10-19T22:37:33.948Z,10.50
2018-10-19T22:40:02.642Z,10.40
2018-10-19T22:42:31.107Z,10.40
2018-10-19T22:44:59.675Z,10.20
2018-10-19T22:47:28.365Z,10.20
2018-10-19T22:49:56.934Z,10.00
2018-10-19T22:52:25.504Z,10.10
2018-10-19T22:54:54.732Z,10.20
2018-10-19T22:57:23.287Z,10.10
2018-10-19T22:59:52.138Z,10.10
2018-10-19T23:02:20.938Z,10.10
2018-10-19T23:04:49.596Z,10.10
2018-10-19T23:07:18.128Z,10.00
2018-10-19T23:09:46.726Z,10.00
2018-10-19T23:12:15.344Z,10.00
2018-10-19T23:14:43.797Z,9.90
2018-10-19T23:17:12.532Z,9.90
2018-10-19T23:19:41.295Z,10.00
2018-10-19T23:22:09.845Z,9.90
2018-10-19T23:24:38.514Z,9.90
2018-10-19T23:27:07.043Z,10.00
2018-10-19T23:29:35.832Z,9.90
2018-10-19T23:32:04.751Z,9.90
2018-10-19T23:34:33.476Z,9.80
2018-10-19T23:37:02.063Z,9.70
2018-10-19T23:39:30.615Z,9.80
2018-10-19T23:41:59.147Z,9.70
2018-10-19T23:44:27.610Z,9.80
2018-10-19T23:46:56.273Z,9.70
2018-10-19T23:49:24.865Z,9.70
2018-10-19T23:51:53.700Z,9.70
2018-10-19T23:54:22.344Z,9.70
2018-10-19T23:56:50.860Z,9.60
2018-10-19T23:59:19.340Z,9.70
